sensor_id;sensor_type;location;lat;lon;timestamp;temperature;humidity
34147;DHT22;20423;49.448;9.056;2023-04-07T00:01:23;4.00;99.90
34147;DHT22;20423;49.448;9.056;2023-04-07T00:03:48;4.00;99.90
34147;DHT22;20423;49.448;9.056;2023-04-07T00:06:14;4.00;99.90
34147;DHT22;20423;49.448;9.056;2023-04-07T00:08:40;4.00;99.90
34147;DHT22;20423;49.448;9.056;2023-04-07T00:11:06;4.00;99.90
34147;DHT22;20423;49.448;9.056;2023-04-07T00:13:33;4.00;99.90
34147;DHT22;20423;49.448;9.056;2023-04-07T00:15:59;3.90;99.90
34147;DHT22;20423;49.448;9.056;2023-04-07T00:18:25;4.00;99.90
34147;DHT22;20423;49.448;9.056;2023-04-07T00:20:50;3.90;99.90
34147;DHT22;20423;49.448;9.056;2023-04-07T00:23:16;3.90;99.90
34147;DHT22;20423;49.448;9.056;2023-04-07T00:25:42;3.90;99.90
34147;DHT22;20423;49.448;9.056;2023-04-07T00:28:07;3.90;99.90
34147;DHT22;20423;49.448;9.056;2023-04-07T00:30:33;3.90;99.90
34147;DHT22;20423;49.448;9.056;2023-04-07T00:32:59;3.90;99.90
34147;DHT22;20423;49.448;9.056;2023-04-07T00:35:25;4.00;99.90
34147;DHT22;20423;49.448;9.056;2023-04-07T00:37:56;3.90;99.90
34147;DHT22;20423;49.448;9.056;2023-04-07T00:40:22;3.90;99.90
34147;DHT22;20423;49.448;9.056;2023-04-07T00:42:48;3.90;99.90
34147;DHT22;20423;49.448;9.056;2023-04-07T00:45:13;3.90;99.90
34147;DHT22;20423;49.448;9.056;2023-04-07T00:47:39;3.90;99.90
34147;DHT22;20423;49.448;9.056;2023-04-07T00:50:06;3.90;99.90
34147;DHT22;20423;49.448;9.056;2023-04-07T00:52:32;3.90;99.90
34147;DHT22;20423;49.448;9.056;2023-04-07T00:55:01;3.90;99.90
34147;DHT22;20423;49.448;9.056;2023-04-07T00:57:27;3.90;99.90
34147;DHT22;20423;49.448;9.056;2023-04-07T00:59:54;3.90;99.90
34147;DHT22;20423;49.448;9.056;2023-04-07T01:02:40;3.90;99.90
34147;DHT22;20423;49.448;9.056;2023-04-07T01:05:30;3.80;99.90
34147;DHT22;20423;49.448;9.056;2023-04-07T01:08:11;3.90;99.90
34147;DHT22;20423;49.448;9.056;2023-04-07T01:10:50;3.90;99.90
34147;DHT22;20423;49.448;9.056;2023-04-07T01:13:30;3.90;99.90
34147;DHT22;20423;49.448;9.056;2023-04-07T01:16:15;3.90;99.90
34147;DHT22;20423;49.448;9.056;2023-04-07T01:18:51;3.90;99.90
34147;DHT22;20423;49.448;9.056;2023-04-07T01:21:18;3.90;99.90
34147;DHT22;20423;49.448;9.056;2023-04-07T01:26:31;3.80;99.90
34147;DHT22;20423;49.448;9.056;2023-04-07T01:29:27;3.80;99.90
34147;DHT22;20423;49.448;9.056;2023-04-07T01:31:57;3.80;99.90
34147;DHT22;20423;49.448;9.056;2023-04-07T01:34:25;3.90;99.90
34147;DHT22;20423;49.448;9.056;2023-04-07T01:36:51;3.90;99.90
34147;DHT22;20423;49.448;9.056;2023-04-07T01:39:17;3.90;99.90
34147;DHT22;20423;49.448;9.056;2023-04-07T01:41:45;3.90;99.90
34147;DHT22;20423;49.448;9.056;2023-04-07T01:44:12;3.90;99.90
34147;DHT22;20423;49.448;9.056;2023-04-07T01:46:38;3.90;99.90
34147;DHT22;20423;49.448;9.056;2023-04-07T01:49:04;3.90;99.90
34147;DHT22;20423;49.448;9.056;2023-04-07T01:51:31;3.80;99.90
34147;DHT22;20423;49.448;9.056;2023-04-07T01:53:58;3.80;99.90
34147;DHT22;20423;49.448;9.056;2023-04-07T01:56:26;3.90;99.90
34147;DHT22;20423;49.448;9.056;2023-04-07T01:58:53;3.90;99.90
34147;DHT22;20423;49.448;9.056;2023-04-07T02:01:22;3.80;99.90
34147;DHT22;20423;49.448;9.056;2023-04-07T02:04:01;3.80;99.90
34147;DHT22;20423;49.448;9.056;2023-04-07T02:06:33;3.90;99.90
34147;DHT22;20423;49.448;9.056;2023-04-07T02:09:04;3.90;99.90
34147;DHT22;20423;49.448;9.056;2023-04-07T02:11:31;3.90;99.90
34147;DHT22;20423;49.448;9.056;2023-04-07T02:14:03;3.90;99.90
34147;DHT22;20423;49.448;9.056;2023-04-07T02:16:36;3.90;99.90
34147;DHT22;20423;49.448;9.056;2023-04-07T02:19:04;3.90;99.90
34147;DHT22;20423;49.448;9.056;2023-04-07T02:21:31;3.90;99.90
34147;DHT22;20423;49.448;9.056;2023-04-07T02:24:00;3.90;99.90
34147;DHT22;20423;49.448;9.056;2023-04-07T02:26:26;4.00;99.90
34147;DHT22;20423;49.448;9.056;2023-04-07T02:28:55;3.90;99.90
34147;DHT22;20423;49.448;9.056;2023-04-07T02:31:21;3.90;99.90
34147;DHT22;20423;49.448;9.056;2023-04-07T02:33:47;3.90;99.90
34147;DHT22;20423;49.448;9.056;2023-04-07T02:36:13;3.90;99.90
34147;DHT22;20423;49.448;9.056;2023-04-07T02:38:38;4.00;99.90
34147;DHT22;20423;49.448;9.056;2023-04-07T02:41:04;3.90;99.90
34147;DHT22;20423;49.448;9.056;2023-04-07T02:43:31;4.00;99.90
34147;DHT22;20423;49.448;9.056;2023-04-07T02:45:56;4.00;99.90
34147;DHT22;20423;49.448;9.056;2023-04-07T02:48:22;4.00;99.90
34147;DHT22;20423;49.448;9.056;2023-04-07T02:50:48;3.90;99.90
34147;DHT22;20423;49.448;9.056;2023-04-07T02:53:13;4.00;99.90
34147;DHT22;20423;49.448;9.056;2023-04-07T02:55:40;3.90;99.90
34147;DHT22;20423;49.448;9.056;2023-04-07T02:58:06;4.00;99.90
34147;DHT22;20423;49.448;9.056;2023-04-07T03:00:49;4.00;99.90
34147;DHT22;20423;49.448;9.056;2023-04-07T03:03:19;4.00;99.90
34147;DHT22;20423;49.448;9.056;2023-04-07T03:06:05;3.90;99.90
34147;DHT22;20423;49.448;9.056;2023-04-07T03:08:33;4.00;99.90
34147;DHT22;20423;49.448;9.056;2023-04-07T03:10:59;4.00;99.90
34147;DHT22;20423;49.448;9.056;2023-04-07T03:13:28;4.00;99.90
34147;DHT22;20423;49.448;9.056;2023-04-07T03:15:56;4.00;99.90
34147;DHT22;20423;49.448;9.056;2023-04-07T03:18:23;4.00;99.90
34147;DHT22;20423;49.448;9.056;2023-04-07T03:21:02;4.00;99.90
34147;DHT22;20423;49.448;9.056;2023-04-07T03:23:29;4.00;99.90
34147;DHT22;20423;49.448;9.056;2023-04-07T03:25:57;4.00;99.90
34147;DHT22;20423;49.448;9.056;2023-04-07T03:28:27;4.00;99.90
34147;DHT22;20423;49.448;9.056;2023-04-07T03:30:53;4.00;99.90
34147;DHT22;20423;49.448;9.056;2023-04-07T03:33:20;3.90;99.90
34147;DHT22;20423;49.448;9.056;2023-04-07T03:35:46;3.90;99.90
34147;DHT22;20423;49.448;9.056;2023-04-07T03:38:12;3.90;99.90
34147;DHT22;20423;49.448;9.056;2023-04-07T03:40:38;3.90;99.90
34147;DHT22;20423;49.448;9.056;2023-04-07T03:43:04;3.90;99.90
34147;DHT22;20423;49.448;9.056;2023-04-07T03:45:29;3.90;99.90
34147;DHT22;20423;49.448;9.056;2023-04-07T03:47:55;3.90;99.90
34147;DHT22;20423;49.448;9.056;2023-04-07T03:50:21;4.00;99.90
34147;DHT22;20423;49.448;9.056;2023-04-07T03:52:55;3.90;99.90
34147;DHT22;20423;49.448;9.056;2023-04-07T03:55:27;3.90;99.90
34147;DHT22;20423;49.448;9.056;2023-04-07T03:58:01;3.90;99.90
34147;DHT22;20423;49.448;9.056;2023-04-07T04:00:31;4.00;99.90
34147;DHT22;20423;49.448;9.056;2023-04-07T04:03:05;4.00;99.90
34147;DHT22;20423;49.448;9.056;2023-04-07T04:05:33;4.00;99.90
34147;DHT22;20423;49.448;9.056;2023-04-07T04:07:59;4.00;99.90
34147;DHT22;20423;49.448;9.056;2023-04-07T04:10:26;4.00;99.90
34147;DHT22;20423;49.448;9.056;2023-04-07T04:12:56;3.90;99.90
34147;DHT22;20423;49.448;9.056;2023-04-07T04:15:25;3.90;99.90
34147;DHT22;20423;49.448;9.056;2023-04-07T04:17:54;3.90;99.90
34147;DHT22;20423;49.448;9.056;2023-04-07T04:20:22;4.00;99.90
34147;DHT22;20423;49.448;9.056;2023-04-07T04:22:49;3.90;99.90
34147;DHT22;20423;49.448;9.056;2023-04-07T04:25:16;3.90;99.90
34147;DHT22;20423;49.448;9.056;2023-04-07T04:27:46;3.90;99.90
34147;DHT22;20423;49.448;9.056;2023-04-07T04:30:18;3.90;99.90
34147;DHT22;20423;49.448;9.056;2023-04-07T04:32:56;3.90;99.90
34147;DHT22;20423;49.448;9.056;2023-04-07T04:35:45;4.00;99.90
34147;DHT22;20423;49.448;9.056;2023-04-07T04:38:15;3.90;99.90
34147;DHT22;20423;49.448;9.056;2023-04-07T04:40:47;4.00;99.90
34147;DHT22;20423;49.448;9.056;2023-04-07T04:43:15;4.00;99.90
34147;DHT22;20423;49.448;9.056;2023-04-07T04:45:41;4.00;99.90
34147;DHT22;20423;49.448;9.056;2023-04-07T04:48:10;3.90;99.90
34147;DHT22;20423;49.448;9.056;2023-04-07T04:50:36;4.00;99.90
34147;DHT22;20423;49.448;9.056;2023-04-07T04:53:07;4.00;99.90
34147;DHT22;20423;49.448;9.056;2023-04-07T04:55:33;4.00;99.90
34147;DHT22;20423;49.448;9.056;2023-04-07T04:57:59;4.00;99.90
34147;DHT22;20423;49.448;9.056;2023-04-07T05:00:35;4.00;99.90
34147;DHT22;20423;49.448;9.056;2023-04-07T05:03:04;3.90;99.90
34147;DHT22;20423;49.448;9.056;2023-04-07T05:05:35;3.90;99.90
34147;DHT22;20423;49.448;9.056;2023-04-07T05:08:02;4.00;99.90
34147;DHT22;20423;49.448;9.056;2023-04-07T05:10:37;4.00;99.90
34147;DHT22;20423;49.448;9.056;2023-04-07T05:13:07;4.00;99.90
34147;DHT22;20423;49.448;9.056;2023-04-07T05:15:39;4.00;99.90
34147;DHT22;20423;49.448;9.056;2023-04-07T05:18:07;4.00;99.90
34147;DHT22;20423;49.448;9.056;2023-04-07T05:20:34;4.00;99.90
34147;DHT22;20423;49.448;9.056;2023-04-07T05:23:00;4.10;99.90
34147;DHT22;20423;49.448;9.056;2023-04-07T05:25:31;4.10;99.90
34147;DHT22;20423;49.448;9.056;2023-04-07T05:27:59;4.10;99.90
34147;DHT22;20423;49.448;9.056;2023-04-07T05:30:26;4.20;99.90
34147;DHT22;20423;49.448;9.056;2023-04-07T05:32:52;4.10;99.90
34147;DHT22;20423;49.448;9.056;2023-04-07T05:35:30;4.10;99.90
34147;DHT22;20423;49.448;9.056;2023-04-07T05:37:57;4.10;99.90
34147;DHT22;20423;49.448;9.056;2023-04-07T05:40:29;4.20;99.90
34147;DHT22;20423;49.448;9.056;2023-04-07T05:42:57;4.20;99.90
34147;DHT22;20423;49.448;9.056;2023-04-07T05:45:23;4.20;99.90
34147;DHT22;20423;49.448;9.056;2023-04-07T05:47:49;4.20;99.90
34147;DHT22;20423;49.448;9.056;2023-04-07T05:50:21;4.30;99.90
34147;DHT22;20423;49.448;9.056;2023-04-07T05:52:57;4.20;99.90
34147;DHT22;20423;49.448;9.056;2023-04-07T05:55:25;4.30;99.90
34147;DHT22;20423;49.448;9.056;2023-04-07T05:57:53;4.30;99.90
34147;DHT22;20423;49.448;9.056;2023-04-07T06:00:21;4.30;99.90
34147;DHT22;20423;49.448;9.056;2023-04-07T06:03:00;4.30;99.90
34147;DHT22;20423;49.448;9.056;2023-04-07T06:05:29;4.40;99.90
34147;DHT22;20423;49.448;9.056;2023-04-07T06:07:56;4.40;99.90
34147;DHT22;20423;49.448;9.056;2023-04-07T06:10:27;4.50;99.90
34147;DHT22;20423;49.448;9.056;2023-04-07T06:12:53;4.50;99.90
34147;DHT22;20423;49.448;9.056;2023-04-07T06:15:19;4.60;99.90
34147;DHT22;20423;49.448;9.056;2023-04-07T06:17:45;4.70;99.90
34147;DHT22;20423;49.448;9.056;2023-04-07T06:20:11;4.70;99.90
34147;DHT22;20423;49.448;9.056;2023-04-07T06:22:37;4.60;99.90
34147;DHT22;20423;49.448;9.056;2023-04-07T06:25:03;4.60;99.90
34147;DHT22;20423;49.448;9.056;2023-04-07T06:27:30;4.70;99.90
34147;DHT22;20423;49.448;9.056;2023-04-07T06:29:57;4.70;99.90
34147;DHT22;20423;49.448;9.056;2023-04-07T06:32:23;4.80;99.90
34147;DHT22;20423;49.448;9.056;2023-04-07T06:34:50;4.80;99.90
34147;DHT22;20423;49.448;9.056;2023-04-07T06:37:16;4.90;99.90
34147;DHT22;20423;49.448;9.056;2023-04-07T06:39:42;5.00;99.90
34147;DHT22;20423;49.448;9.056;2023-04-07T06:42:07;5.00;99.90
34147;DHT22;20423;49.448;9.056;2023-04-07T06:44:39;5.00;99.90
34147;DHT22;20423;49.448;9.056;2023-04-07T06:47:04;4.90;99.90
34147;DHT22;20423;49.448;9.056;2023-04-07T06:49:31;5.00;99.90
34147;DHT22;20423;49.448;9.056;2023-04-07T06:51:56;5.00;99.90
34147;DHT22;20423;49.448;9.056;2023-04-07T06:54:22;5.00;99.90
34147;DHT22;20423;49.448;9.056;2023-04-07T06:56:48;4.90;99.90
34147;DHT22;20423;49.448;9.056;2023-04-07T06:59:14;4.90;99.90
34147;DHT22;20423;49.448;9.056;2023-04-07T07:01:40;4.80;99.90
34147;DHT22;20423;49.448;9.056;2023-04-07T07:04:06;4.80;99.90
34147;DHT22;20423;49.448;9.056;2023-04-07T07:06:32;4.80;99.90
34147;DHT22;20423;49.448;9.056;2023-04-07T07:08:58;4.80;99.90
34147;DHT22;20423;49.448;9.056;2023-04-07T07:11:24;4.90;99.90
34147;DHT22;20423;49.448;9.056;2023-04-07T07:13:50;5.00;99.90
34147;DHT22;20423;49.448;9.056;2023-04-07T07:16:15;5.20;99.90
34147;DHT22;20423;49.448;9.056;2023-04-07T07:18:41;5.40;99.90
34147;DHT22;20423;49.448;9.056;2023-04-07T07:21:07;5.50;99.90
34147;DHT22;20423;49.448;9.056;2023-04-07T07:23:33;5.60;99.90
34147;DHT22;20423;49.448;9.056;2023-04-07T07:25:59;5.70;99.90
34147;DHT22;20423;49.448;9.056;2023-04-07T07:28:25;5.80;99.90
34147;DHT22;20423;49.448;9.056;2023-04-07T07:30:50;5.80;99.90
34147;DHT22;20423;49.448;9.056;2023-04-07T07:33:16;6.00;99.90
34147;DHT22;20423;49.448;9.056;2023-04-07T07:35:42;6.10;99.90
34147;DHT22;20423;49.448;9.056;2023-04-07T07:38:08;6.50;99.90
34147;DHT22;20423;49.448;9.056;2023-04-07T07:40:34;6.90;99.90
34147;DHT22;20423;49.448;9.056;2023-04-07T07:43:00;7.20;99.90
34147;DHT22;20423;49.448;9.056;2023-04-07T07:45:25;7.80;99.90
34147;DHT22;20423;49.448;9.056;2023-04-07T07:47:51;8.10;99.90
34147;DHT22;20423;49.448;9.056;2023-04-07T07:50:17;8.60;99.90
34147;DHT22;20423;49.448;9.056;2023-04-07T07:52:43;8.90;99.90
34147;DHT22;20423;49.448;9.056;2023-04-07T07:55:09;8.90;99.90
34147;DHT22;20423;49.448;9.056;2023-04-07T07:57:35;8.50;99.90
34147;DHT22;20423;49.448;9.056;2023-04-07T08:00:01;8.40;99.90
34147;DHT22;20423;49.448;9.056;2023-04-07T08:02:38;8.50;99.90
34147;DHT22;20423;49.448;9.056;2023-04-07T08:05:04;8.60;99.90
34147;DHT22;20423;49.448;9.056;2023-04-07T08:07:30;8.80;99.90
34147;DHT22;20423;49.448;9.056;2023-04-07T08:09:56;9.00;99.90
34147;DHT22;20423;49.448;9.056;2023-04-07T08:12:22;9.30;99.90
34147;DHT22;20423;49.448;9.056;2023-04-07T08:14:48;9.20;99.90
34147;DHT22;20423;49.448;9.056;2023-04-07T08:17:14;9.20;99.90
34147;DHT22;20423;49.448;9.056;2023-04-07T08:19:40;9.20;99.90
34147;DHT22;20423;49.448;9.056;2023-04-07T08:22:06;9.60;99.90
34147;DHT22;20423;49.448;9.056;2023-04-07T08:24:31;9.20;99.90
34147;DHT22;20423;49.448;9.056;2023-04-07T08:26:57;9.30;99.90
34147;DHT22;20423;49.448;9.056;2023-04-07T08:29:23;9.60;99.90
34147;DHT22;20423;49.448;9.056;2023-04-07T08:31:48;10.00;99.90
34147;DHT22;20423;49.448;9.056;2023-04-07T08:34:14;10.40;99.90
34147;DHT22;20423;49.448;9.056;2023-04-07T08:36:41;10.30;99.90
34147;DHT22;20423;49.448;9.056;2023-04-07T08:39:06;10.40;99.90
34147;DHT22;20423;49.448;9.056;2023-04-07T08:41:37;10.50;99.90
34147;DHT22;20423;49.448;9.056;2023-04-07T08:44:03;10.50;99.90
34147;DHT22;20423;49.448;9.056;2023-04-07T08:46:32;10.20;99.90
34147;DHT22;20423;49.448;9.056;2023-04-07T08:48:58;10.40;99.90
34147;DHT22;20423;49.448;9.056;2023-04-07T08:51:31;10.40;99.90
34147;DHT22;20423;49.448;9.056;2023-04-07T08:54:09;10.30;99.90
34147;DHT22;20423;49.448;9.056;2023-04-07T08:56:39;10.30;99.90
34147;DHT22;20423;49.448;9.056;2023-04-07T08:59:07;10.00;99.90
34147;DHT22;20423;49.448;9.056;2023-04-07T09:01:34;9.70;99.90
34147;DHT22;20423;49.448;9.056;2023-04-07T09:04:01;9.50;99.90
34147;DHT22;20423;49.448;9.056;2023-04-07T09:06:29;9.50;99.90
34147;DHT22;20423;49.448;9.056;2023-04-07T09:09:00;9.70;99.90
34147;DHT22;20423;49.448;9.056;2023-04-07T09:11:26;10.10;99.90
34147;DHT22;20423;49.448;9.056;2023-04-07T09:13:53;10.40;99.90
34147;DHT22;20423;49.448;9.056;2023-04-07T09:16:19;10.70;99.90
34147;DHT22;20423;49.448;9.056;2023-04-07T09:18:46;10.90;99.90
34147;DHT22;20423;49.448;9.056;2023-04-07T09:21:12;10.80;99.90
34147;DHT22;20423;49.448;9.056;2023-04-07T09:23:39;11.00;99.90
34147;DHT22;20423;49.448;9.056;2023-04-07T09:26:18;10.70;99.90
34147;DHT22;20423;49.448;9.056;2023-04-07T09:28:47;10.50;99.90
34147;DHT22;20423;49.448;9.056;2023-04-07T09:31:13;10.20;99.90
34147;DHT22;20423;49.448;9.056;2023-04-07T09:33:39;9.60;99.90
34147;DHT22;20423;49.448;9.056;2023-04-07T09:36:05;9.50;99.90
34147;DHT22;20423;49.448;9.056;2023-04-07T09:38:36;9.60;99.90
34147;DHT22;20423;49.448;9.056;2023-04-07T09:43:37;9.40;99.90
34147;DHT22;20423;49.448;9.056;2023-04-07T09:46:15;9.50;99.90
34147;DHT22;20423;49.448;9.056;2023-04-07T09:48:44;9.40;99.90
34147;DHT22;20423;49.448;9.056;2023-04-07T09:51:16;9.30;99.90
34147;DHT22;20423;49.448;9.056;2023-04-07T09:53:51;9.20;99.90
34147;DHT22;20423;49.448;9.056;2023-04-07T09:56:19;8.90;99.90
34147;DHT22;20423;49.448;9.056;2023-04-07T09:58:49;8.80;99.90
34147;DHT22;20423;49.448;9.056;2023-04-07T10:01:18;8.80;99.90
34147;DHT22;20423;49.448;9.056;2023-04-07T10:03:46;8.70;99.90
34147;DHT22;20423;49.448;9.056;2023-04-07T10:06:12;8.90;99.90
34147;DHT22;20423;49.448;9.056;2023-04-07T10:09:00;8.90;99.90
34147;DHT22;20423;49.448;9.056;2023-04-07T10:11:26;8.70;99.90
34147;DHT22;20423;49.448;9.056;2023-04-07T10:13:55;8.50;99.90
34147;DHT22;20423;49.448;9.056;2023-04-07T10:16:21;8.20;99.90
34147;DHT22;20423;49.448;9.056;2023-04-07T10:18:48;8.10;99.90
34147;DHT22;20423;49.448;9.056;2023-04-07T10:21:15;8.10;99.90
34147;DHT22;20423;49.448;9.056;2023-04-07T10:26:53;9.50;99.90
34147;DHT22;20423;49.448;9.056;2023-04-07T10:29:22;11.00;99.90
34147;DHT22;20423;49.448;9.056;2023-04-07T10:31:49;12.30;99.90
34147;DHT22;20423;49.448;9.056;2023-04-07T10:34:15;13.80;99.90
34147;DHT22;20423;49.448;9.056;2023-04-07T10:37:19;14.30;99.90
34147;DHT22;20423;49.448;9.056;2023-04-07T10:39:47;14.30;99.90
34147;DHT22;20423;49.448;9.056;2023-04-07T10:45:05;14.40;99.90
34147;DHT22;20423;49.448;9.056;2023-04-07T10:47:31;14.00;99.90
34147;DHT22;20423;49.448;9.056;2023-04-07T10:52:46;12.10;99.90
34147;DHT22;20423;49.448;9.056;2023-04-07T10:55:32;11.70;99.90
34147;DHT22;20423;49.448;9.056;2023-04-07T11:03:41;12.50;99.90
34147;DHT22;20423;49.448;9.056;2023-04-07T11:06:16;13.60;99.90
34147;DHT22;20423;49.448;9.056;2023-04-07T11:08:43;14.00;99.90
34147;DHT22;20423;49.448;9.056;2023-04-07T11:11:11;14.20;99.90
34147;DHT22;20423;49.448;9.056;2023-04-07T11:13:47;14.10;99.90
34147;DHT22;20423;49.448;9.056;2023-04-07T11:16:15;14.70;99.90
34147;DHT22;20423;49.448;9.056;2023-04-07T11:18:42;15.10;99.90
34147;DHT22;20423;49.448;9.056;2023-04-07T11:21:08;15.10;99.90
34147;DHT22;20423;49.448;9.056;2023-04-07T11:23:42;15.00;99.90
34147;DHT22;20423;49.448;9.056;2023-04-07T11:26:10;15.60;99.90
34147;DHT22;20423;49.448;9.056;2023-04-07T11:28:47;15.10;99.90
34147;DHT22;20423;49.448;9.056;2023-04-07T11:31:27;14.90;99.90
34147;DHT22;20423;49.448;9.056;2023-04-07T11:34:00;15.80;99.90
34147;DHT22;20423;49.448;9.056;2023-04-07T11:38:56;16.70;99.90
34147;DHT22;20423;49.448;9.056;2023-04-07T11:41:22;16.90;99.90
34147;DHT22;20423;49.448;9.056;2023-04-07T11:44:03;17.30;99.90
34147;DHT22;20423;49.448;9.056;2023-04-07T11:46:28;16.80;99.90
34147;DHT22;20423;49.448;9.056;2023-04-07T11:49:13;16.60;99.90
34147;DHT22;20423;49.448;9.056;2023-04-07T11:51:42;15.80;99.90
34147;DHT22;20423;49.448;9.056;2023-04-07T11:54:08;16.30;99.90
34147;DHT22;20423;49.448;9.056;2023-04-07T11:56:45;17.40;99.90
34147;DHT22;20423;49.448;9.056;2023-04-07T11:59:22;17.80;97.70
34147;DHT22;20423;49.448;9.056;2023-04-07T12:01:49;17.50;99.20
34147;DHT22;20423;49.448;9.056;2023-04-07T12:04:15;17.70;99.90
34147;DHT22;20423;49.448;9.056;2023-04-07T12:06:42;18.00;96.70
34147;DHT22;20423;49.448;9.056;2023-04-07T12:09:25;18.10;95.40
34147;DHT22;20423;49.448;9.056;2023-04-07T12:11:52;17.50;95.00
34147;DHT22;20423;49.448;9.056;2023-04-07T12:14:17;16.80;94.00
34147;DHT22;20423;49.448;9.056;2023-04-07T12:16:44;16.20;97.20
34147;DHT22;20423;49.448;9.056;2023-04-07T12:19:10;15.60;99.90
34147;DHT22;20423;49.448;9.056;2023-04-07T12:21:35;14.50;99.90
34147;DHT22;20423;49.448;9.056;2023-04-07T12:24:01;13.90;99.90
34147;DHT22;20423;49.448;9.056;2023-04-07T12:26:28;13.50;99.90
34147;DHT22;20423;49.448;9.056;2023-04-07T12:28:54;12.60;99.90
34147;DHT22;20423;49.448;9.056;2023-04-07T12:31:20;12.20;99.90
34147;DHT22;20423;49.448;9.056;2023-04-07T12:33:46;12.10;99.90
34147;DHT22;20423;49.448;9.056;2023-04-07T12:36:12;12.10;99.90
34147;DHT22;20423;49.448;9.056;2023-04-07T12:38:38;12.30;99.90
34147;DHT22;20423;49.448;9.056;2023-04-07T12:41:03;12.30;99.90
34147;DHT22;20423;49.448;9.056;2023-04-07T12:43:30;12.30;99.90
34147;DHT22;20423;49.448;9.056;2023-04-07T12:45:56;12.40;99.90
34147;DHT22;20423;49.448;9.056;2023-04-07T12:48:22;12.30;99.90
34147;DHT22;20423;49.448;9.056;2023-04-07T12:50:48;11.80;99.90
34147;DHT22;20423;49.448;9.056;2023-04-07T12:53:14;11.50;99.90
34147;DHT22;20423;49.448;9.056;2023-04-07T12:55:40;11.70;99.90
34147;DHT22;20423;49.448;9.056;2023-04-07T12:58:06;11.60;99.90
34147;DHT22;20423;49.448;9.056;2023-04-07T13:00:33;11.70;99.90
34147;DHT22;20423;49.448;9.056;2023-04-07T13:02:59;11.60;99.90
34147;DHT22;20423;49.448;9.056;2023-04-07T13:05:25;11.80;99.90
34147;DHT22;20423;49.448;9.056;2023-04-07T13:07:52;12.20;99.90
34147;DHT22;20423;49.448;9.056;2023-04-07T13:10:17;12.60;99.90
34147;DHT22;20423;49.448;9.056;2023-04-07T13:12:47;12.90;99.90
34147;DHT22;20423;49.448;9.056;2023-04-07T13:15:13;13.20;99.90
34147;DHT22;20423;49.448;9.056;2023-04-07T13:17:39;14.00;99.90
34147;DHT22;20423;49.448;9.056;2023-04-07T13:20:06;14.60;99.90
34147;DHT22;20423;49.448;9.056;2023-04-07T13:22:32;15.30;99.90
34147;DHT22;20423;49.448;9.056;2023-04-07T13:24:58;16.00;99.90
34147;DHT22;20423;49.448;9.056;2023-04-07T13:27:24;16.10;99.90
34147;DHT22;20423;49.448;9.056;2023-04-07T13:30:12;16.30;99.90
34147;DHT22;20423;49.448;9.056;2023-04-07T13:32:38;17.50;99.90
34147;DHT22;20423;49.448;9.056;2023-04-07T13:35:04;17.20;99.90
34147;DHT22;20423;49.448;9.056;2023-04-07T13:37:29;16.50;99.90
34147;DHT22;20423;49.448;9.056;2023-04-07T13:39:55;15.90;99.90
34147;DHT22;20423;49.448;9.056;2023-04-07T13:42:21;16.00;99.90
34147;DHT22;20423;49.448;9.056;2023-04-07T13:44:46;15.60;99.90
34147;DHT22;20423;49.448;9.056;2023-04-07T13:47:15;15.20;99.90
34147;DHT22;20423;49.448;9.056;2023-04-07T13:49:47;14.80;99.90
34147;DHT22;20423;49.448;9.056;2023-04-07T13:52:14;14.00;99.90
34147;DHT22;20423;49.448;9.056;2023-04-07T13:54:40;13.80;99.90
34147;DHT22;20423;49.448;9.056;2023-04-07T13:57:06;13.60;99.90
34147;DHT22;20423;49.448;9.056;2023-04-07T13:59:32;13.50;99.90
34147;DHT22;20423;49.448;9.056;2023-04-07T14:01:58;13.60;99.90
34147;DHT22;20423;49.448;9.056;2023-04-07T14:04:24;13.40;99.90
34147;DHT22;20423;49.448;9.056;2023-04-07T14:06:49;13.00;99.90
34147;DHT22;20423;49.448;9.056;2023-04-07T14:09:15;12.80;99.90
34147;DHT22;20423;49.448;9.056;2023-04-07T14:11:41;12.80;99.90
34147;DHT22;20423;49.448;9.056;2023-04-07T14:14:06;12.70;99.90
34147;DHT22;20423;49.448;9.056;2023-04-07T14:16:32;12.50;99.90
34147;DHT22;20423;49.448;9.056;2023-04-07T14:18:58;12.40;99.90
34147;DHT22;20423;49.448;9.056;2023-04-07T14:21:24;12.20;99.90
34147;DHT22;20423;49.448;9.056;2023-04-07T14:23:52;12.10;99.90
34147;DHT22;20423;49.448;9.056;2023-04-07T14:26:17;12.10;99.90
34147;DHT22;20423;49.448;9.056;2023-04-07T14:28:43;12.00;99.90
34147;DHT22;20423;49.448;9.056;2023-04-07T14:31:13;11.80;99.90
34147;DHT22;20423;49.448;9.056;2023-04-07T14:33:41;11.50;99.90
34147;DHT22;20423;49.448;9.056;2023-04-07T14:36:06;11.30;99.90
34147;DHT22;20423;49.448;9.056;2023-04-07T14:38:32;11.00;99.90
34147;DHT22;20423;49.448;9.056;2023-04-07T14:40:58;10.80;99.90
34147;DHT22;20423;49.448;9.056;2023-04-07T14:43:23;10.30;99.90
34147;DHT22;20423;49.448;9.056;2023-04-07T14:45:50;10.10;99.90
34147;DHT22;20423;49.448;9.056;2023-04-07T14:48:15;9.90;99.90
34147;DHT22;20423;49.448;9.056;2023-04-07T14:50:47;9.40;99.90
34147;DHT22;20423;49.448;9.056;2023-04-07T14:53:13;8.90;99.90
34147;DHT22;20423;49.448;9.056;2023-04-07T14:55:40;8.50;99.90
34147;DHT22;20423;49.448;9.056;2023-04-07T14:58:06;7.80;99.90
34147;DHT22;20423;49.448;9.056;2023-04-07T15:00:34;7.10;99.90
34147;DHT22;20423;49.448;9.056;2023-04-07T15:03:00;6.50;99.90
34147;DHT22;20423;49.448;9.056;2023-04-07T15:05:26;6.10;99.90
34147;DHT22;20423;49.448;9.056;2023-04-07T15:07:53;5.80;99.90
34147;DHT22;20423;49.448;9.056;2023-04-07T15:10:19;5.70;99.90
34147;DHT22;20423;49.448;9.056;2023-04-07T15:12:45;5.60;99.90
34147;DHT22;20423;49.448;9.056;2023-04-07T15:15:14;5.70;99.90
34147;DHT22;20423;49.448;9.056;2023-04-07T15:17:40;5.80;99.90
34147;DHT22;20423;49.448;9.056;2023-04-07T15:20:07;5.90;99.90
34147;DHT22;20423;49.448;9.056;2023-04-07T15:22:34;6.00;99.90
34147;DHT22;20423;49.448;9.056;2023-04-07T15:25:00;6.10;99.90
34147;DHT22;20423;49.448;9.056;2023-04-07T15:27:27;6.20;99.90
34147;DHT22;20423;49.448;9.056;2023-04-07T15:29:53;6.30;99.90
34147;DHT22;20423;49.448;9.056;2023-04-07T15:32:19;6.50;99.90
34147;DHT22;20423;49.448;9.056;2023-04-07T15:34:44;6.60;99.90
34147;DHT22;20423;49.448;9.056;2023-04-07T15:37:12;6.70;99.90
34147;DHT22;20423;49.448;9.056;2023-04-07T15:39:38;6.80;99.90
34147;DHT22;20423;49.448;9.056;2023-04-07T15:42:04;6.90;99.90
34147;DHT22;20423;49.448;9.056;2023-04-07T15:44:37;6.90;99.90
34147;DHT22;20423;49.448;9.056;2023-04-07T15:47:06;7.00;99.90
34147;DHT22;20423;49.448;9.056;2023-04-07T15:49:33;7.00;99.90
34147;DHT22;20423;49.448;9.056;2023-04-07T15:51:59;7.00;99.90
34147;DHT22;20423;49.448;9.056;2023-04-07T15:54:27;7.00;99.90
34147;DHT22;20423;49.448;9.056;2023-04-07T15:56:53;7.00;99.90
34147;DHT22;20423;49.448;9.056;2023-04-07T15:59:19;7.00;99.90
34147;DHT22;20423;49.448;9.056;2023-04-07T16:01:44;7.00;99.90
34147;DHT22;20423;49.448;9.056;2023-04-07T16:04:10;6.90;99.90
34147;DHT22;20423;49.448;9.056;2023-04-07T16:06:36;6.90;99.90
34147;DHT22;20423;49.448;9.056;2023-04-07T16:09:02;6.90;99.90
34147;DHT22;20423;49.448;9.056;2023-04-07T16:11:28;6.90;99.90